Time;durP1;ratioP1;P1;durP2;ratioP2;P2;SDS_P1;SDS_P2;PMS_P1;PMS_P2;Temp;Humidity;BMP_temperature;BMP_pressure;BME280_temperature;BME280_humidity;BME280_pressure;Samples;Min_cycle;Max_cycle;Signal;HPM_P1;HPM_P2
2022/07/28 00:00:48;;;;;;;;;;;;;;;17.18;61.62;96634.63;6221988;28;19926;-65
2022/07/28 00:03:52;;;;;;;;;;;;;;;17.14;61.95;96635.88;6222065;28;19921;-65
2022/07/28 00:06:56;;;;;;;;;;;;;;;16.98;62.67;96639.16;6221812;28;19932;-65
2022/07/28 00:09:57;;;;;;;;;;;;;;;16.82;63.24;96629.16;6221590;28;20311;-65
2022/07/28 00:13:01;;;;;;;;;;;;;;;16.67;63.37;96632.34;6221505;28;19925;-66
2022/07/28 00:16:06;;;;;;;;;;;;;;;16.57;63.86;96641.19;6221890;28;20314;-64
2022/07/28 00:19:11;;;;;;;;;;;;;;;16.50;64.46;96640.09;6221739;28;19926;-66
2022/07/28 00:22:12;;;;;;;;;;;;;;;16.43;64.50;96646.94;6221410;28;19926;-65
2022/07/28 00:25:16;;;;;;;;;;;;;;;16.36;64.40;96651.13;6221655;28;20399;-66
2022/07/28 00:28:21;;;;;;;;;;;;;;;16.34;64.49;96653.09;6221648;28;19976;-65
2022/07/28 00:31:25;;;;;;;;;;;;;;;16.33;64.62;96656.72;6221244;28;19949;-66
2022/07/28 00:34:26;;;;;;;;;;;;;;;16.31;64.67;96661.34;6221253;28;19925;-66
2022/07/28 00:37:28;;;;;;;;;;;;;;;16.32;64.56;96657.72;6221007;28;19947;-66
2022/07/28 00:43:53;;;;;;;;;;;;;;;16.49;64.33;96678.25;6221207;28;20068;-66
2022/07/28 00:46:59;;;;;;;;;;;;;;;16.58;64.25;96677.38;6220393;28;19925;-65
2022/07/28 00:50:03;;;;;;;;;;;;;;;16.69;64.11;96664.94;6221564;28;19925;-65
2022/07/28 00:53:10;;;;;;;;;;;;;;;16.80;63.80;96672.78;6221346;28;19971;-66
2022/07/28 00:56:11;;;;;;;;;;;;;;;16.88;63.78;96670.25;6221178;28;19925;-65
2022/07/28 00:59:14;;;;;;;;;;;;;;;16.94;63.68;96680.31;6221535;28;19925;-65
2022/07/28 01:02:20;;;;;;;;;;;;;;;16.97;63.78;96680.00;6221181;28;19932;-66
2022/07/28 01:05:21;;;;;;;;;;;;;;;17.01;63.56;96676.09;6220696;28;20315;-67
2022/07/28 01:08:26;;;;;;;;;;;;;;;17.08;63.57;96678.19;6221062;28;19925;-66
2022/07/28 01:11:33;;;;;;;;;;;;;;;17.15;63.67;96681.91;6220903;28;20300;-65
2022/07/28 01:14:51;;;;;;;;;;;;;;;17.20;63.38;96692.97;6221188;28;19925;-66
2022/07/28 01:18:06;;;;;;;;;;;;;;;17.20;63.46;96696.44;6221309;28;19925;-65
2022/07/28 01:21:10;;;;;;;;;;;;;;;17.19;63.59;96693.97;6221161;28;20080;-64
2022/07/28 01:24:32;;;;;;;;;;;;;;;17.26;63.82;96689.72;6220945;28;19925;-65
2022/07/28 01:27:36;;;;;;;;;;;;;;;17.32;63.71;96694.44;6220774;28;19931;-65
2022/07/28 01:30:45;;;;;;;;;;;;;;;17.33;63.71;96696.16;6221066;28;19929;-66
2022/07/28 01:33:54;;;;;;;;;;;;;;;17.31;64.14;96698.09;6221018;28;19926;-66
2022/07/28 01:37:03;;;;;;;;;;;;;;;17.24;64.46;96695.19;6220964;28;19926;-65
2022/07/28 01:40:08;;;;;;;;;;;;;;;17.19;65.03;96689.47;6220851;28;19925;-66
2022/07/28 01:43:16;;;;;;;;;;;;;;;17.33;64.26;96698.81;6221672;28;19925;-66
2022/07/28 01:46:17;;;;;;;;;;;;;;;17.47;63.90;96693.00;6225049;28;20358;-66
2022/07/28 01:49:23;;;;;;;;;;;;;;;17.67;63.98;96700.91;6224939;28;19926;-66
2022/07/28 01:52:25;;;;;;;;;;;;;;;17.87;63.14;96699.84;6225058;28;19932;-65
2022/07/28 01:55:29;;;;;;;;;;;;;;;17.89;63.47;96695.22;6224768;28;19991;-65
2022/07/28 01:58:31;;;;;;;;;;;;;;;17.79;64.07;96707.72;6224637;28;20016;-66
2022/07/28 02:01:37;;;;;;;;;;;;;;;17.65;65.01;96700.19;6224583;28;20307;-65
2022/07/28 02:04:42;;;;;;;;;;;;;;;17.60;65.47;96707.78;6224865;28;19926;-66
2022/07/28 02:07:46;;;;;;;;;;;;;;;17.53;65.48;96696.06;6224716;28;19929;-66
2022/07/28 02:14:16;;;;;;;;;;;;;;;17.57;65.75;96697.44;6224412;28;19925;-66
2022/07/28 02:17:19;;;;;;;;;;;;;;;17.66;66.00;96707.19;6224115;28;19925;-66
2022/07/28 02:20:21;;;;;;;;;;;;;;;17.68;66.18;96702.56;6223782;28;20307;-66
2022/07/28 02:23:22;;;;;;;;;;;;;;;17.75;65.98;96711.66;6223484;28;19933;-66
2022/07/28 02:26:31;;;;;;;;;;;;;;;17.83;65.99;96714.41;6223945;28;19925;-66
2022/07/28 02:29:37;;;;;;;;;;;;;;;17.89;65.81;96719.16;6223813;28;19948;-66
2022/07/28 02:32:47;;;;;;;;;;;;;;;17.95;65.68;96725.72;6223654;28;19925;-65
2022/07/28 02:35:53;;;;;;;;;;;;;;;18.05;65.54;96722.97;6223682;28;19925;-65
2022/07/28 02:39:00;;;;;;;;;;;;;;;18.08;65.56;96728.00;6223513;28;19948;-65
2022/07/28 02:42:08;;;;;;;;;;;;;;;18.10;65.78;96729.53;6223039;28;20395;-66
2022/07/28 02:45:11;;;;;;;;;;;;;;;18.08;65.66;96728.00;6223300;28;19925;-66
2022/07/28 02:48:16;;;;;;;;;;;;;;;18.20;65.55;96728.63;6223235;28;20028;-65
2022/07/28 02:51:22;;;;;;;;;;;;;;;18.31;65.17;96718.59;6223403;28;19925;-66
2022/07/28 02:54:27;;;;;;;;;;;;;;;18.37;65.07;96722.47;6223261;28;20303;-66
2022/07/28 02:57:31;;;;;;;;;;;;;;;18.47;64.93;96722.41;6223219;28;19926;-65
2022/07/28 03:00:38;;;;;;;;;;;;;;;18.43;64.78;96726.34;6223151;28;19932;-66
2022/07/28 03:03:41;;;;;;;;;;;;;;;18.43;64.86;96721.03;6223030;28;19965;-65
2022/07/28 03:06:47;;;;;;;;;;;;;;;18.47;64.86;96722.41;6221962;28;19925;-66
2022/07/28 03:09:51;;;;;;;;;;;;;;;18.61;64.54;96724.53;6222658;28;19925;-66
2022/07/28 03:12:53;;;;;;;;;;;;;;;18.74;64.07;96726.84;6222732;28;20327;-66
2022/07/28 03:15:57;;;;;;;;;;;;;;;18.83;63.78;96733.94;6222602;28;19925;-66
2022/07/28 03:19:00;;;;;;;;;;;;;;;18.91;63.61;96731.34;6222563;28;19932;-66
2022/07/28 03:22:06;;;;;;;;;;;;;;;19.08;63.02;96742.97;6222664;28;19925;-66
2022/07/28 03:25:20;;;;;;;;;;;;;;;19.42;61.81;96734.16;6222684;28;19925;-66
2022/07/28 03:28:22;;;;;;;;;;;;;;;19.67;60.57;96738.69;6222453;28;20319;-66
2022/07/28 03:31:28;;;;;;;;;;;;;;;19.88;59.66;96745.44;6222241;28;19926;-65
2022/07/28 03:34:33;;;;;;;;;;;;;;;20.15;56.96;96744.34;6222118;28;19925;-65
2022/07/28 03:37:39;;;;;;;;;;;;;;;20.29;55.63;96748.22;6221964;28;19932;-66
2022/07/28 03:40:41;;;;;;;;;;;;;;;20.37;55.81;96745.59;6222344;28;19925;-66
2022/07/28 03:43:43;;;;;;;;;;;;;;;20.39;55.15;96759.63;6221926;28;20316;-65
2022/07/28 03:46:46;;;;;;;;;;;;;;;20.46;55.51;96765.13;6222122;28;20395;-65
2022/07/28 03:49:50;;;;;;;;;;;;;;;20.79;54.87;96768.75;6222153;28;19926;-66
2022/07/28 03:52:53;;;;;;;;;;;;;;;21.10;54.36;96760.88;6222096;28;19926;-65
2022/07/28 03:55:55;;;;;;;;;;;;;;;21.34;54.06;96765.38;6222288;28;20362;-66
2022/07/28 03:58:58;;;;;;;;;;;;;;;21.55;53.47;96772.91;6221738;28;20506;-65
2022/07/28 04:02:00;;;;;;;;;;;;;;;21.73;52.36;96775.38;6222038;28;20497;-65
2022/07/28 04:05:02;;;;;;;;;;;;;;;22.14;50.52;96772.56;6221679;28;19926;-65
2022/07/28 04:08:04;;;;;;;;;;;;;;;22.54;50.33;96776.06;6221209;28;19926;-66
2022/07/28 04:11:06;;;;;;;;;;;;;;;22.86;48.55;96766.94;6221648;28;19926;-65
2022/07/28 04:14:07;;;;;;;;;;;;;;;22.89;48.83;96763.09;6221948;28;19932;-65
2022/07/28 04:17:10;;;;;;;;;;;;;;;22.89;48.65;96765.75;6221676;28;19922;-65
2022/07/28 04:20:15;;;;;;;;;;;;;;;22.93;48.32;96761.69;6220376;28;19960;-66
2022/07/28 04:23:19;;;;;;;;;;;;;;;22.89;48.20;96760.41;6221534;28;20032;-65
2022/07/28 04:26:23;;;;;;;;;;;;;;;22.84;46.55;96752.88;6221636;28;19968;-66
2022/07/28 04:29:25;;;;;;;;;;;;;;;22.58;46.89;96754.06;6221317;28;19933;-65
2022/07/28 04:32:26;;;;;;;;;;;;;;;22.58;46.24;96759.44;6221336;28;19921;-66
2022/07/28 04:35:27;;;;;;;;;;;;;;;22.63;45.47;96758.91;6221364;28;20392;-66
2022/07/28 04:38:31;;;;;;;;;;;;;;;22.70;45.09;96751.81;6221288;28;20302;-66
2022/07/28 04:41:35;;;;;;;;;;;;;;;23.14;43.06;96753.84;6221188;28;19969;-66
2022/07/28 04:44:41;;;;;;;;;;;;;;;24.55;40.91;96758.34;6221367;28;19925;-65
2022/07/28 04:47:44;;;;;;;;;;;;;;;25.46;39.70;96758.56;6221339;28;19934;-65
2022/07/28 04:50:49;;;;;;;;;;;;;;;26.82;36.38;96755.34;6221267;28;19975;-64
2022/07/28 04:53:53;;;;;;;;;;;;;;;27.91;34.35;96757.66;6221016;28;19925;-65
2022/07/28 04:56:54;;;;;;;;;;;;;;;30.18;32.04;96759.72;6220634;28;20346;-67
2022/07/28 05:00:01;;;;;;;;;;;;;;;33.37;28.61;96758.75;6220510;28;19925;-66
2022/07/28 05:03:04;;;;;;;;;;;;;;;36.01;26.01;96759.41;6220995;28;20319;-66
2022/07/28 05:06:08;;;;;;;;;;;;;;;38.21;23.67;96772.78;6221134;28;19925;-66
2022/07/28 05:09:14;;;;;;;;;;;;;;;38.71;23.65;96759.97;6220952;28;19925;-66
2022/07/28 05:12:15;;;;;;;;;;;;;;;39.29;22.50;96768.44;6220442;28;19947;-66
2022/07/28 05:15:19;;;;;;;;;;;;;;;40.91;20.00;96772.63;6220854;28;20419;-66
2022/07/28 05:18:20;;;;;;;;;;;;;;;42.27;19.69;96775.41;6223353;28;19964;-65
2022/07/28 05:21:24;;;;;;;;;;;;;;;43.34;16.80;96774.28;6224795;28;20311;-66
2022/07/28 05:24:25;;;;;;;;;;;;;;;44.71;17.49;96780.97;6223884;28;19988;-66
2022/07/28 05:27:31;;;;;;;;;;;;;;;44.99;14.16;96778.75;6225390;28;20307;-66
2022/07/28 05:30:32;;;;;;;;;;;;;;;45.87;17.34;96780.41;6225067;28;19929;-65
2022/07/28 05:33:34;;;;;;;;;;;;;;;46.87;14.77;96792.16;6224978;28;20027;-65
2022/07/28 05:36:37;;;;;;;;;;;;;;;47.74;15.31;96793.50;6225140;28;19930;-65
2022/07/28 05:39:39;;;;;;;;;;;;;;;49.14;11.91;96790.63;6224470;28;19925;-66
2022/07/28 05:42:41;;;;;;;;;;;;;;;49.22;12.38;96789.69;6225074;28;20425;-65
2022/07/28 05:45:47;;;;;;;;;;;;;;;50.05;11.45;96790.09;6224888;28;19976;-66
2022/07/28 05:48:51;;;;;;;;;;;;;;;50.58;10.75;96793.47;6224906;28;19933;-65
2022/07/28 05:51:56;;;;;;;;;;;;;;;50.72;10.33;96790.25;6224603;28;20024;-66
2022/07/28 05:54:59;;;;;;;;;;;;;;;49.77;10.49;96782.56;6224118;28;19925;-65
2022/07/28 05:58:01;;;;;;;;;;;;;;;47.66;12.11;96776.50;6224513;28;20372;-66
2022/07/28 06:01:05;;;;;;;;;;;;;;;48.86;11.87;96771.00;6224620;28;20398;-66
2022/07/28 06:04:11;;;;;;;;;;;;;;;51.17;10.69;96778.47;6224583;28;19925;-65
2022/07/28 06:07:13;;;;;;;;;;;;;;;52.96;9.33;96773.38;6224226;28;19976;-65
2022/07/28 06:10:18;;;;;;;;;;;;;;;51.62;9.23;96763.00;6224230;28;19925;-65
2022/07/28 06:13:22;;;;;;;;;;;;;;;48.00;10.08;96763.38;6224449;28;19932;-66
2022/07/28 06:16:26;;;;;;;;;;;;;;;43.63;13.14;96738.69;6224093;28;19925;-66
2022/07/28 06:19:30;;;;;;;;;;;;;;;41.12;14.70;96726.25;6222090;28;19961;-66
2022/07/28 06:22:42;;;;;;;;;;;;;;;41.11;13.67;96721.03;6224037;28;19925;-66
2022/07/28 06:25:43;;;;;;;;;;;;;;;44.55;12.37;96740.94;6223492;28;19948;-66
2022/07/28 06:28:47;;;;;;;;;;;;;;;44.84;12.34;96739.53;6223353;28;19981;-66
2022/07/28 06:31:51;;;;;;;;;;;;;;;42.19;13.08;96740.19;6223663;28;20343;-65
2022/07/28 06:34:54;;;;;;;;;;;;;;;40.09;14.63;96723.97;6223257;28;20339;-65
2022/07/28 06:37:58;;;;;;;;;;;;;;;42.19;12.27;96731.06;6223605;28;19925;-65
2022/07/28 06:41:02;;;;;;;;;;;;;;;42.58;13.21;96736.09;6223009;28;19925;-65
2022/07/28 06:44:08;;;;;;;;;;;;;;;40.65;13.81;96729.94;6221611;28;19988;-66
2022/07/28 06:47:09;;;;;;;;;;;;;;;38.43;16.01;96717.50;6223152;28;20360;-66
2022/07/28 06:50:12;;;;;;;;;;;;;;;37.07;17.18;96711.63;6223306;28;20028;-65
2022/07/28 06:53:13;;;;;;;;;;;;;;;36.68;16.65;96705.75;6223291;28;20302;-66
2022/07/28 06:56:15;;;;;;;;;;;;;;;39.38;15.07;96721.88;6223044;28;20401;-65
2022/07/28 06:59:16;;;;;;;;;;;;;;;42.80;12.96;96719.56;6222942;28;20307;-67
2022/07/28 07:02:20;;;;;;;;;;;;;;;44.36;11.68;96727.31;6221695;28;19932;-66
2022/07/28 07:05:22;;;;;;;;;;;;;;;46.83;10.70;96731.91;6223042;28;20016;-66
2022/07/28 07:08:26;;;;;;;;;;;;;;;45.10;11.42;96726.50;6222945;28;19925;-66
2022/07/28 07:11:32;;;;;;;;;;;;;;;43.79;11.93;96722.47;6222477;28;19925;-66
2022/07/28 07:14:33;;;;;;;;;;;;;;;42.71;13.15;96718.63;6222736;28;19926;-66
2022/07/28 07:17:36;;;;;;;;;;;;;;;44.47;11.98;96717.56;6222360;28;19925;-66
2022/07/28 07:20:42;;;;;;;;;;;;;;;47.01;10.33;96733.41;6222298;28;19926;-65
2022/07/28 07:23:48;;;;;;;;;;;;;;;48.83;9.53;96732.59;6222944;28;19926;-65
2022/07/28 07:26:51;;;;;;;;;;;;;;;50.50;8.76;96741.28;6222496;28;20063;-65
2022/07/28 07:29:55;;;;;;;;;;;;;;;51.32;7.40;96742.34;6222538;28;19933;-65
2022/07/28 07:32:57;;;;;;;;;;;;;;;49.99;8.83;96738.38;6222294;28;19925;-67
2022/07/28 07:36:00;;;;;;;;;;;;;;;48.46;10.05;96724.25;6222540;28;20024;-65
2022/07/28 07:39:04;;;;;;;;;;;;;;;50.21;8.40;96729.34;6222373;28;19925;-65
2022/07/28 07:42:06;;;;;;;;;;;;;;;47.71;9.15;96713.31;6221702;28;19925;-66
2022/07/28 07:45:13;;;;;;;;;;;;;;;46.89;9.96;96719.44;6222592;28;19925;-65
2022/07/28 07:48:19;;;;;;;;;;;;;;;47.47;9.40;96723.22;6222641;28;19926;-65
2022/07/28 07:51:22;;;;;;;;;;;;;;;45.31;10.91;96709.19;6222386;28;20365;-65
2022/07/28 07:54:23;;;;;;;;;;;;;;;43.18;12.21;96699.91;6221668;28;19926;-67
2022/07/28 07:57:25;;;;;;;;;;;;;;;40.94;13.30;96700.28;6221566;28;19925;-65
2022/07/28 08:00:31;;;;;;;;;;;;;;;42.30;12.48;96702.91;6221543;28;19925;-65
2022/07/28 08:03:37;;;;;;;;;;;;;;;43.31;11.93;96702.91;6222284;28;19925;-65
2022/07/28 08:06:38;;;;;;;;;;;;;;;44.40;11.28;96695.03;6221673;28;19925;-66
2022/07/28 08:09:39;;;;;;;;;;;;;;;43.82;11.64;96696.06;6221345;28;19925;-65
2022/07/28 08:12:43;;;;;;;;;;;;;;;41.29;13.32;96692.59;6221727;28;19925;-65
2022/07/28 08:15:46;;;;;;;;;;;;;;;38.15;14.94;96684.88;6221770;28;19925;-65
2022/07/28 08:18:47;;;;;;;;;;;;;;;35.94;16.80;96671.19;6221075;28;20388;-65
2022/07/28 08:21:48;;;;;;;;;;;;;;;35.82;17.16;96667.84;6221209;28;19933;-64
2022/07/28 08:24:52;;;;;;;;;;;;;;;37.10;15.89;96671.03;6221495;28;19930;-65
2022/07/28 08:27:55;;;;;;;;;;;;;;;37.82;15.59;96672.63;6221823;28;20047;-65
2022/07/28 08:30:56;;;;;;;;;;;;;;;36.56;16.65;96673.13;6221254;28;19932;-65
2022/07/28 08:34:00;;;;;;;;;;;;;;;38.28;15.04;96683.47;6221394;28;19929;-66
2022/07/28 08:37:04;;;;;;;;;;;;;;;39.36;14.64;96688.31;6221073;28;19925;-66
2022/07/28 08:40:10;;;;;;;;;;;;;;;40.06;14.31;96680.47;6220895;28;19926;-66
2022/07/28 08:43:22;;;;;;;;;;;;;;;39.15;14.82;96688.44;6221043;28;20318;-65
2022/07/28 08:46:25;;;;;;;;;;;;;;;38.73;15.37;96681.59;6221063;28;20399;-66
2022/07/28 08:49:27;;;;;;;;;;;;;;;39.87;14.44;96671.31;6221246;28;19932;-65
2022/07/28 08:52:32;;;;;;;;;;;;;;;38.71;15.08;96677.47;6222667;28;19925;-65
2022/07/28 08:55:34;;;;;;;;;;;;;;;36.81;16.06;96679.75;6225299;28;19932;-65
2022/07/28 08:58:40;;;;;;;;;;;;;;;37.94;15.78;96686.88;6225790;28;20387;-65
2022/07/28 09:01:44;;;;;;;;;;;;;;;41.08;13.48;96682.97;6225787;28;19925;-65
2022/07/28 09:04:47;;;;;;;;;;;;;;;42.92;12.39;96696.91;6225892;28;19925;-65
2022/07/28 09:07:53;;;;;;;;;;;;;;;41.38;12.85;96699.03;6226199;28;19930;-65
2022/07/28 09:10:54;;;;;;;;;;;;;;;38.97;13.86;96683.66;6225514;28;20291;-65
2022/07/28 09:13:59;;;;;;;;;;;;;;;36.15;16.48;96667.50;6226119;28;19925;-64
2022/07/28 09:17:02;;;;;;;;;;;;;;;34.68;17.37;96665.31;6225821;28;20306;-66
2022/07/28 09:20:04;;;;;;;;;;;;;;;33.66;18.25;96669.47;6225265;28;20318;-66
2022/07/28 09:23:06;;;;;;;;;;;;;;;34.92;17.36;96668.53;6224890;28;20006;-66
2022/07/28 09:26:12;;;;;;;;;;;;;;;39.02;14.35;96678.13;6225959;28;19925;-65
2022/07/28 09:29:22;;;;;;;;;;;;;;;41.83;12.74;96681.97;6225123;28;19932;-65
2022/07/28 09:32:24;;;;;;;;;;;;;;;42.02;12.29;96692.97;6224871;28;19954;-66
2022/07/28 09:35:25;;;;;;;;;;;;;;;42.53;12.12;96684.47;6224490;28;20060;-66
2022/07/28 09:38:29;;;;;;;;;;;;;;;44.68;10.96;96690.03;6225079;28;19926;-65
2022/07/28 09:41:45;;;;;;;;;;;;;;;46.36;10.15;96703.03;6225062;28;19936;-65
2022/07/28 09:45:01;;;;;;;;;;;;;;;47.06;9.91;96699.81;6224549;28;19925;-65
2022/07/28 09:48:09;;;;;;;;;;;;;;;47.90;9.52;96702.44;6224961;28;20338;-66
2022/07/28 09:51:15;;;;;;;;;;;;;;;46.71;9.76;96707.59;6224568;28;19925;-65
2022/07/28 09:54:19;;;;;;;;;;;;;;;42.74;11.52;96700.63;6224449;28;19925;-66
2022/07/28 09:57:26;;;;;;;;;;;;;;;41.10;12.52;96691.78;6224350;28;19925;-66
2022/07/28 10:00:31;;;;;;;;;;;;;;;42.97;11.53;96693.19;6224556;28;20299;-66
2022/07/28 10:03:35;;;;;;;;;;;;;;;45.00;10.51;96691.53;6223450;28;19929;-66
2022/07/28 10:06:39;;;;;;;;;;;;;;;46.33;9.95;96689.78;6224349;28;20373;-64
2022/07/28 10:09:40;;;;;;;;;;;;;;;46.95;9.50;96696.59;6223607;28;20015;-65
2022/07/28 10:12:47;;;;;;;;;;;;;;;44.28;10.73;96683.72;6224031;28;19925;-64
2022/07/28 10:16:11;;;;;;;;;;;;;;;41.00;12.44;96676.19;6224279;28;19930;-65
2022/07/28 10:40:35;;;;;;;;;;;;;;;40.02;13.05;96667.56;6223121;28;20303;-65
2022/07/28 10:43:39;;;;;;;;;;;;;;;41.00;12.45;96665.97;6223634;28;19925;-65
2022/07/28 10:46:43;;;;;;;;;;;;;;;41.09;12.31;96673.59;6223595;28;19925;-66
2022/07/28 10:49:49;;;;;;;;;;;;;;;41.43;12.20;96668.59;6223398;28;19925;-65
2022/07/28 10:52:53;;;;;;;;;;;;;;;42.03;11.81;96669.75;6223374;28;20005;-65
2022/07/28 10:56:04;;;;;;;;;;;;;;;42.30;11.88;96666.97;6223575;28;19925;-66
2022/07/28 10:59:20;;;;;;;;;;;;;;;41.15;12.61;96662.16;6222920;28;20011;-65
2022/07/28 11:02:40;;;;;;;;;;;;;;;40.99;12.53;96669.88;6222566;28;20395;-66
2022/07/28 11:05:46;;;;;;;;;;;;;;;40.83;12.75;96668.47;6223095;28;19925;-66
2022/07/28 11:08:53;;;;;;;;;;;;;;;40.06;13.26;96672.19;6222498;28;20417;-66
2022/07/28 11:11:57;;;;;;;;;;;;;;;38.23;14.14;96664.25;6222888;28;20024;-66
2022/07/28 11:15:20;;;;;;;;;;;;;;;37.05;14.87;96664.44;6222486;28;19930;-65
2022/07/28 11:18:23;;;;;;;;;;;;;;;35.95;16.36;96653.66;6222741;28;20399;-65
2022/07/28 11:21:27;;;;;;;;;;;;;;;34.28;17.22;96649.25;6221199;28;19926;-65
2022/07/28 11:24:49;;;;;;;;;;;;;;;33.24;18.44;96648.94;6221912;28;20468;-66
2022/07/28 11:27:53;;;;;;;;;;;;;;;32.80;18.61;96639.72;6222552;28;20310;-65
2022/07/28 11:30:57;;;;;;;;;;;;;;;33.05;18.52;96644.81;6222773;28;19929;-65
2022/07/28 11:34:02;;;;;;;;;;;;;;;33.23;18.23;96647.28;6222257;28;19928;-65
2022/07/28 11:37:08;;;;;;;;;;;;;;;33.09;18.30;96655.00;6222004;28;19925;-65
2022/07/28 11:40:30;;;;;;;;;;;;;;;33.60;17.58;96648.66;6221981;28;19925;-65
2022/07/28 11:43:34;;;;;;;;;;;;;;;35.03;16.72;96655.78;6222180;28;20044;-66
2022/07/28 11:46:36;;;;;;;;;;;;;;;35.12;16.91;96659.69;6220591;28;19932;-65
2022/07/28 11:49:40;;;;;;;;;;;;;;;33.98;17.77;96656.81;6221568;28;19925;-65
2022/07/28 11:52:51;;;;;;;;;;;;;;;33.34;18.32;96655.63;6221543;28;19972;-65
2022/07/28 11:55:55;;;;;;;;;;;;;;;33.70;18.20;96659.72;6221893;28;19925;-66
2022/07/28 11:59:01;;;;;;;;;;;;;;;33.59;17.83;96645.09;6221508;28;19979;-65
2022/07/28 12:02:04;;;;;;;;;;;;;;;33.69;17.81;96653.44;6221388;28;19925;-66
2022/07/28 12:05:09;;;;;;;;;;;;;;;33.71;18.09;96650.44;6221563;28;19925;-66
2022/07/28 12:08:10;;;;;;;;;;;;;;;33.81;17.89;96650.59;6221845;28;19926;-65
2022/07/28 12:11:16;;;;;;;;;;;;;;;34.22;17.76;96645.66;6221540;28;20387;-65
2022/07/28 12:14:22;;;;;;;;;;;;;;;34.33;17.71;96643.88;6221389;28;20017;-65
2022/07/28 12:17:32;;;;;;;;;;;;;;;33.89;17.71;96650.16;6221162;28;19925;-65
2022/07/28 12:20:43;;;;;;;;;;;;;;;33.82;17.80;96652.22;6221242;28;19929;-64
2022/07/28 12:23:45;;;;;;;;;;;;;;;34.23;17.54;96651.97;6221145;28;20035;-65
2022/07/28 12:26:47;;;;;;;;;;;;;;;34.55;17.27;96649.28;6218389;28;19955;-65
2022/07/28 12:29:58;;;;;;;;;;;;;;;34.86;17.02;96640.31;6220106;28;19925;-65
2022/07/28 12:32:59;;;;;;;;;;;;;;;34.91;17.06;96641.47;6221366;28;19932;-65
2022/07/28 12:36:04;;;;;;;;;;;;;;;34.64;17.41;96653.22;6221026;28;20010;-65
2022/07/28 12:39:06;;;;;;;;;;;;;;;34.37;17.47;96643.09;6220603;28;19925;-65
2022/07/28 12:42:09;;;;;;;;;;;;;;;34.01;17.73;96643.75;6220244;28;19925;-65
2022/07/28 12:45:11;;;;;;;;;;;;;;;33.43;17.62;96633.16;6220795;28;19925;-66
2022/07/28 12:48:16;;;;;;;;;;;;;;;32.75;18.33;96631.47;6220851;28;20410;-66
2022/07/28 12:51:33;;;;;;;;;;;;;;;32.56;18.53;96620.81;6220543;28;19923;-65
2022/07/28 12:54:36;;;;;;;;;;;;;;;32.24;18.56;96619.63;6220668;28;19926;-65
2022/07/28 12:57:46;;;;;;;;;;;;;;;31.38;19.80;96627.63;6220730;28;20375;-64
2022/07/28 13:00:51;;;;;;;;;;;;;;;30.50;20.53;96624.63;6220674;28;20342;-66
2022/07/28 13:03:52;;;;;;;;;;;;;;;29.88;21.06;96624.81;6221023;28;19947;-65
2022/07/28 13:06:55;;;;;;;;;;;;;;;29.33;21.35;96632.94;6220997;28;20063;-66
2022/07/28 13:10:01;;;;;;;;;;;;;;;29.22;21.60;96637.19;6220995;28;19925;-66
2022/07/28 13:13:07;;;;;;;;;;;;;;;29.20;21.73;96628.47;6219834;28;19925;-64
2022/07/28 13:16:11;;;;;;;;;;;;;;;29.52;20.92;96626.44;6220972;28;19921;-65
2022/07/28 13:19:21;;;;;;;;;;;;;;;29.70;20.69;96627.56;6220699;28;19925;-66
2022/07/28 13:22:34;;;;;;;;;;;;;;;29.53;21.08;96625.41;6220708;28;19925;-66
2022/07/28 13:25:36;;;;;;;;;;;;;;;29.15;21.42;96624.75;6220917;28;19933;-65
2022/07/28 13:28:38;;;;;;;;;;;;;;;28.93;21.94;96627.84;6220585;28;19926;-66
2022/07/28 13:31:42;;;;;;;;;;;;;;;28.71;22.16;96624.69;6220550;28;20423;-65
2022/07/28 13:34:46;;;;;;;;;;;;;;;28.53;22.42;96630.03;6220103;28;19958;-67
2022/07/28 13:37:50;;;;;;;;;;;;;;;28.52;22.19;96621.09;6219877;28;19925;-65
2022/07/28 13:40:55;;;;;;;;;;;;;;;28.64;22.22;96635.56;6225018;28;19929;-66
2022/07/28 13:44:01;;;;;;;;;;;;;;;28.46;22.32;96627.38;6225366;28;19925;-66
2022/07/28 13:47:13;;;;;;;;;;;;;;;28.20;22.73;96626.47;6225074;28;20080;-65
2022/07/28 13:50:16;;;;;;;;;;;;;;;27.78;23.16;96627.88;6225050;28;19925;-66
2022/07/28 13:53:17;;;;;;;;;;;;;;;27.17;23.87;96628.25;6224613;28;20383;-66
2022/07/28 13:56:37;;;;;;;;;;;;;;;26.78;24.11;96633.44;6224392;28;19936;-65
2022/07/28 13:59:38;;;;;;;;;;;;;;;26.36;24.68;96627.34;6224317;28;20319;-65
2022/07/28 14:02:42;;;;;;;;;;;;;;;26.23;25.01;96630.00;6224504;28;20015;-65
2022/07/28 14:05:47;;;;;;;;;;;;;;;26.03;25.31;96631.84;6224349;28;19933;-66
2022/07/28 14:08:51;;;;;;;;;;;;;;;25.84;25.43;96634.25;6223964;28;20384;-66
2022/07/28 14:12:02;;;;;;;;;;;;;;;25.63;25.16;96631.66;6223667;28;19925;-66
2022/07/28 14:15:06;;;;;;;;;;;;;;;25.50;25.94;96622.44;6224334;28;20446;-67
2022/07/28 14:18:11;;;;;;;;;;;;;;;25.20;25.88;96643.44;6224145;28;19925;-66
2022/07/28 14:21:15;;;;;;;;;;;;;;;25.23;25.72;96642.19;6224021;28;19925;-65
2022/07/28 14:24:19;;;;;;;;;;;;;;;25.47;25.59;96633.63;6224064;28;19925;-66
2022/07/28 14:27:23;;;;;;;;;;;;;;;25.50;25.38;96641.31;6224241;28;19925;-66
2022/07/28 14:30:28;;;;;;;;;;;;;;;25.48;25.39;96635.31;6223944;28;19932;-66
2022/07/28 14:33:33;;;;;;;;;;;;;;;25.51;25.46;96634.06;6223437;28;20302;-65
2022/07/28 14:36:35;;;;;;;;;;;;;;;25.37;25.57;96649.34;6223318;28;20359;-68
2022/07/28 14:39:41;;;;;;;;;;;;;;;25.12;25.66;96643.53;6223051;28;20326;-66
2022/07/28 14:42:43;;;;;;;;;;;;;;;25.04;26.12;96649.06;6223560;28;20331;-66
2022/07/28 14:45:44;;;;;;;;;;;;;;;24.92;26.28;96646.09;6223236;28;19921;-66
2022/07/28 14:48:46;;;;;;;;;;;;;;;24.80;26.36;96647.66;6222414;28;20405;-67
2022/07/28 14:51:49;;;;;;;;;;;;;;;24.71;26.53;96641.56;6222394;28;19921;-66
2022/07/28 14:54:58;;;;;;;;;;;;;;;24.58;26.79;96644.97;6223198;28;19945;-66
2022/07/28 14:57:59;;;;;;;;;;;;;;;24.45;27.22;96650.22;6223120;28;19925;-66
2022/07/28 15:01:03;;;;;;;;;;;;;;;24.14;27.33;96642.41;6223162;28;19933;-66
2022/07/28 15:04:10;;;;;;;;;;;;;;;23.92;27.36;96646.91;6223112;28;20323;-65
2022/07/28 15:07:15;;;;;;;;;;;;;;;23.74;27.74;96647.34;6223257;28;19925;-65
2022/07/28 15:10:18;;;;;;;;;;;;;;;23.72;27.95;96660.97;6222786;28;19929;-65
2022/07/28 15:13:36;;;;;;;;;;;;;;;23.54;27.96;96649.72;6222637;28;20237;-65
2022/07/28 15:16:40;;;;;;;;;;;;;;;23.43;28.10;96659.09;6222928;28;19925;-65
2022/07/28 15:19:45;;;;;;;;;;;;;;;23.39;28.27;96659.66;6222192;28;20335;-66
2022/07/28 15:22:49;;;;;;;;;;;;;;;23.43;28.26;96660.94;6222971;28;19932;-66
2022/07/28 15:25:51;;;;;;;;;;;;;;;23.31;28.20;96658.72;6221925;28;19921;-66
2022/07/28 15:28:55;;;;;;;;;;;;;;;23.28;28.18;96660.94;6222468;28;19925;-67
2022/07/28 15:32:01;;;;;;;;;;;;;;;23.25;28.39;96658.63;6222205;28;19933;-69
2022/07/28 15:35:02;;;;;;;;;;;;;;;23.09;28.46;96660.44;6222052;28;19975;-66
2022/07/28 15:38:07;;;;;;;;;;;;;;;22.92;28.48;96668.81;6222279;28;19925;-66
2022/07/28 15:41:10;;;;;;;;;;;;;;;22.90;28.92;96658.28;6222076;28;19932;-68
2022/07/28 15:44:14;;;;;;;;;;;;;;;22.89;29.71;96669.19;6222212;28;19926;-66
2022/07/28 15:47:18;;;;;;;;;;;;;;;22.82;30.19;96667.22;6221404;28;19932;-66
2022/07/28 15:50:20;;;;;;;;;;;;;;;22.70;30.55;96665.97;6221797;28;20342;-66
2022/07/28 15:53:21;;;;;;;;;;;;;;;22.57;30.98;96665.75;6221608;28;19932;-67
2022/07/28 15:56:27;;;;;;;;;;;;;;;22.45;31.19;96670.72;6221634;28;19929;-66
2022/07/28 15:59:28;;;;;;;;;;;;;;;22.41;31.27;96674.75;6220744;28;19925;-66
2022/07/28 16:02:32;;;;;;;;;;;;;;;22.33;31.36;96672.94;6220385;28;19926;-66
2022/07/28 16:05:33;;;;;;;;;;;;;;;22.24;31.30;96670.53;6221189;28;19925;-66
2022/07/28 16:08:34;;;;;;;;;;;;;;;22.22;31.61;96676.03;6220995;28;19929;-66
2022/07/28 16:11:35;;;;;;;;;;;;;;;22.08;31.46;96683.00;6221168;28;19925;-66
2022/07/28 16:14:39;;;;;;;;;;;;;;;22.01;31.92;96690.03;6221727;28;20023;-65
2022/07/28 16:17:41;;;;;;;;;;;;;;;21.95;32.38;96688.91;6221112;28;19952;-66
2022/07/28 16:20:46;;;;;;;;;;;;;;;21.90;32.55;96693.94;6221359;28;19926;-66
2022/07/28 16:23:53;;;;;;;;;;;;;;;21.88;33.13;96695.97;6221571;28;20427;-66
2022/07/28 16:26:55;;;;;;;;;;;;;;;21.71;33.57;96697.03;6220606;28;19925;-66
2022/07/28 16:30:01;;;;;;;;;;;;;;;21.47;33.92;96712.19;6221114;28;19926;-66